createdAt,value
2019-05-21T00:00:32.957Z,4.20
2019-05-21T00:03:02.843Z,4.10
2019-05-21T00:05:33.836Z,4.33
2019-05-21T00:08:03.729Z,4.25
2019-05-21T00:10:33.575Z,3.98
2019-05-21T00:13:03.507Z,4.00
2019-05-21T00:15:34.953Z,4.00
2019-05-21T00:18:05.224Z,4.05
2019-05-21T00:20:35.080Z,4.08
2019-05-21T00:23:05.043Z,4.40
2019-05-21T00:25:34.945Z,4.25
2019-05-21T00:28:33.946Z,4.00
2019-05-21T00:31:40.144Z,3.75
2019-05-21T00:34:46.488Z,3.98
2019-05-21T00:37:52.854Z,3.85
2019-05-21T00:40:59.494Z,3.98
2019-05-21T00:43:38.197Z,4.30
2019-05-21T00:46:08.388Z,4.33
2019-05-21T00:48:38.282Z,4.58
2019-05-21T00:51:08.138Z,5.17
2019-05-21T00:53:37.998Z,4.87
2019-05-21T00:56:07.872Z,5.05
2019-05-21T00:58:37.731Z,6.60
2019-05-21T01:01:07.677Z,4.58
2019-05-21T01:03:37.556Z,5.40
2019-05-21T01:06:07.414Z,5.62
2019-05-21T01:08:37.291Z,6.08
2019-05-21T01:11:07.145Z,5.10
2019-05-21T01:13:37.021Z,5.42
2019-05-21T01:16:07.287Z,4.85
2019-05-21T01:18:37.518Z,4.78
2019-05-21T01:21:07.416Z,6.10
2019-05-21T01:23:38.330Z,4.78
2019-05-21T01:26:08.168Z,5.08
2019-05-21T01:28:38.033Z,5.70
2019-05-21T01:31:07.897Z,6.03
2019-05-21T01:33:39.375Z,5.37
2019-05-21T01:36:09.268Z,6.72
2019-05-21T01:38:39.195Z,4.72
2019-05-21T01:41:09.039Z,5.17
2019-05-21T01:43:38.925Z,5.17
2019-05-21T01:46:08.773Z,5.22
2019-05-21T01:48:38.644Z,4.78
2019-05-21T01:51:08.866Z,5.28
2019-05-21T01:53:38.731Z,5.55
2019-05-21T01:56:09.548Z,5.40
2019-05-21T01:58:39.420Z,5.22
2019-05-21T02:01:09.276Z,4.67
2019-05-21T02:03:39.163Z,4.42
2019-05-21T02:06:09.165Z,4.65
2019-05-21T02:08:39.063Z,5.15
2019-05-21T02:11:08.904Z,4.75
2019-05-21T02:13:38.755Z,5.28
2019-05-21T02:16:09.050Z,6.15
2019-05-21T02:18:38.895Z,5.50
2019-05-21T02:21:08.814Z,5.60
2019-05-21T02:23:38.661Z,6.00
2019-05-21T02:26:08.527Z,5.58
2019-05-21T02:28:38.371Z,6.00
2019-05-21T02:31:08.232Z,4.95
2019-05-21T02:33:38.089Z,5.50
2019-05-21T02:36:07.948Z,5.97
2019-05-21T02:38:37.837Z,6.20
2019-05-21T02:41:09.301Z,5.12
2019-05-21T02:43:39.156Z,6.15
2019-05-21T02:46:09.062Z,6.40
2019-05-21T02:48:38.900Z,5.75
2019-05-21T02:51:08.853Z,6.03
2019-05-21T02:53:38.710Z,6.00
2019-05-21T02:56:08.893Z,6.67
2019-05-21T02:58:38.757Z,6.92
2019-05-21T03:01:10.250Z,5.62
2019-05-21T03:03:40.114Z,6.35
2019-05-21T03:06:14.158Z,6.33
2019-05-21T03:08:41.455Z,6.60
2019-05-21T03:11:24.761Z,6.72
2019-05-21T03:13:54.905Z,5.97
2019-05-21T03:16:25.825Z,7.05
2019-05-21T03:18:55.765Z,6.40
2019-05-21T03:21:25.619Z,6.42
2019-05-21T03:23:55.467Z,6.28
2019-05-21T03:26:25.330Z,6.87
2019-05-21T03:28:55.178Z,7.20
2019-05-21T03:31:25.023Z,7.40
2019-05-21T03:33:54.879Z,7.42
2019-05-21T03:36:33.319Z,7.95
2019-05-21T03:38:56.183Z,7.33
2019-05-21T03:41:26.355Z,6.85
2019-05-21T03:43:56.188Z,8.18
2019-05-21T03:46:26.031Z,7.83
2019-05-21T03:48:55.889Z,7.40
2019-05-21T03:51:25.733Z,8.65
2019-05-21T03:53:55.619Z,7.55
2019-05-21T03:56:25.482Z,7.78
2019-05-21T03:58:55.340Z,8.80
2019-05-21T04:01:25.186Z,8.88
2019-05-21T04:03:55.066Z,9.28
2019-05-21T04:06:28.749Z,9.43
2019-05-21T04:08:56.468Z,9.88
2019-05-21T04:11:26.278Z,8.80
2019-05-21T04:13:56.135Z,9.08
2019-05-21T04:16:39.619Z,8.93
2019-05-21T04:19:19.976Z,7.92
2019-05-21T04:21:49.866Z,9.95
2019-05-21T04:24:20.036Z,8.95
2019-05-21T04:26:49.896Z,9.05
2019-05-21T04:29:19.793Z,9.10
2019-05-21T04:31:50.003Z,9.05
2019-05-21T04:34:20.335Z,9.58
2019-05-21T04:36:50.197Z,8.38
2019-05-21T04:39:20.107Z,9.65
2019-05-21T04:41:49.954Z,9.35
2019-05-21T04:44:19.816Z,9.60
2019-05-21T04:46:49.677Z,8.05
2019-05-21T04:49:19.525Z,9.48
2019-05-21T04:51:49.794Z,9.58
2019-05-21T04:54:20.005Z,8.80
2019-05-21T04:56:49.938Z,8.85
2019-05-21T04:59:19.797Z,9.75
2019-05-21T05:01:49.654Z,9.33
2019-05-21T05:04:21.955Z,9.65
2019-05-21T05:06:52.557Z,10.28
2019-05-21T05:09:22.734Z,9.70
2019-05-21T05:11:52.592Z,9.63
2019-05-21T05:14:23.608Z,9.63
2019-05-21T05:16:53.503Z,9.83
2019-05-21T05:19:23.357Z,9.80
2019-05-21T05:21:53.259Z,10.20
2019-05-21T05:24:23.103Z,9.68
2019-05-21T05:26:52.958Z,10.20
2019-05-21T05:29:23.186Z,9.25
2019-05-21T05:31:54.000Z,9.43
2019-05-21T05:34:23.879Z,9.58
2019-05-21T05:36:53.731Z,8.85
2019-05-21T05:39:23.645Z,9.65
2019-05-21T05:41:53.850Z,8.75
2019-05-21T05:44:23.711Z,9.95
2019-05-21T05:46:53.640Z,11.10
2019-05-21T05:49:32.730Z,10.80
2019-05-21T05:52:02.591Z,9.60
2019-05-21T05:54:32.457Z,10.23
2019-05-21T05:57:02.302Z,9.68
2019-05-21T05:59:32.153Z,9.85
2019-05-21T06:02:02.001Z,9.25
2019-05-21T06:04:31.858Z,9.38
2019-05-21T06:07:04.157Z,9.23
2019-05-21T06:09:34.008Z,9.78
2019-05-21T06:12:03.875Z,9.70
2019-05-21T06:14:33.728Z,9.45
2019-05-21T06:17:03.640Z,8.20
2019-05-21T06:19:33.542Z,8.58
2019-05-21T06:22:03.413Z,8.70
2019-05-21T06:24:33.305Z,9.95
2019-05-21T06:27:03.207Z,9.85
2019-05-21T06:29:33.458Z,9.90
2019-05-21T06:32:05.738Z,10.05
2019-05-21T06:34:35.170Z,9.88
2019-05-21T06:37:05.131Z,9.45
2019-05-21T06:39:35.375Z,9.98
2019-05-21T06:42:05.264Z,10.03
2019-05-21T06:44:36.098Z,9.63
2019-05-21T06:47:05.949Z,11.73
2019-05-21T06:49:35.811Z,10.70
2019-05-21T06:52:05.668Z,12.03
2019-05-21T06:54:35.530Z,11.48
2019-05-21T06:57:05.424Z,12.45
2019-05-21T06:59:35.612Z,13.03
2019-05-21T07:02:05.582Z,13.30
2019-05-21T07:04:35.587Z,13.70
2019-05-21T07:07:05.437Z,13.15
2019-05-21T07:09:35.313Z,13.53
2019-05-21T07:12:05.226Z,13.88
2019-05-21T07:14:35.096Z,12.78
2019-05-21T07:17:05.370Z,14.33
2019-05-21T07:19:35.246Z,15.25
2019-05-21T07:22:12.523Z,15.90
2019-05-21T07:24:36.869Z,13.70
2019-05-21T07:27:06.757Z,16.40
2019-05-21T07:29:36.646Z,19.50
2019-05-21T07:32:06.514Z,18.45
2019-05-21T07:34:36.414Z,14.85
2019-05-21T07:37:06.975Z,16.65
2019-05-21T07:39:36.830Z,15.30
2019-05-21T07:42:06.706Z,16.95
2019-05-21T07:44:36.578Z,16.48
2019-05-21T07:47:06.479Z,16.60
2019-05-21T07:49:37.954Z,17.23
2019-05-21T07:52:07.825Z,17.48
2019-05-21T07:54:37.688Z,15.70
2019-05-21T07:57:07.546Z,15.38
2019-05-21T07:59:37.418Z,16.90
2019-05-21T08:02:07.278Z,15.55
2019-05-21T08:04:37.147Z,18.07
2019-05-21T08:07:07.041Z,18.15
2019-05-21T08:09:36.971Z,17.75
2019-05-21T08:12:27.801Z,18.32
2019-05-21T08:14:38.649Z,17.37
2019-05-21T08:17:08.552Z,18.40
2019-05-21T08:19:38.398Z,19.20
2019-05-21T08:22:08.286Z,18.62
2019-05-21T08:24:38.154Z,16.17
2019-05-21T08:27:08.009Z,12.98
2019-05-21T08:29:37.894Z,14.40
2019-05-21T08:32:07.756Z,14.70
2019-05-21T08:34:37.702Z,14.58
2019-05-21T08:37:07.594Z,13.68
2019-05-21T08:39:37.496Z,13.62
2019-05-21T08:42:07.381Z,11.53
2019-05-21T08:44:37.293Z,12.30
2019-05-21T08:47:07.613Z,12.10
2019-05-21T08:49:37.604Z,13.28
2019-05-21T08:52:07.479Z,13.95
2019-05-21T08:54:50.389Z,12.37
2019-05-21T08:57:20.277Z,11.78
2019-05-21T08:59:50.125Z,12.63
2019-05-21T09:02:19.997Z,13.13
2019-05-21T09:04:49.878Z,11.33
2019-05-21T09:07:19.794Z,9.90
2019-05-21T09:09:51.620Z,11.83
2019-05-21T09:12:21.609Z,11.63
2019-05-21T09:14:51.876Z,9.98
2019-05-21T09:17:21.769Z,11.55
2019-05-21T09:19:54.085Z,11.20
2019-05-21T09:22:24.421Z,10.32
2019-05-21T09:24:54.276Z,11.80
2019-05-21T09:27:25.212Z,11.03
2019-05-21T09:29:55.097Z,11.63
2019-05-21T09:32:25.005Z,12.68
2019-05-21T09:34:54.849Z,13.80
2019-05-21T09:37:24.719Z,12.47
2019-05-21T09:39:54.589Z,10.45
2019-05-21T09:42:24.519Z,10.08
2019-05-21T09:44:54.377Z,12.18
2019-05-21T09:47:24.230Z,12.28
2019-05-21T09:49:54.194Z,12.18
2019-05-21T09:52:24.027Z,11.83
2019-05-21T09:54:53.977Z,12.37
2019-05-21T09:57:28.195Z,12.90
2019-05-21T10:00:11.586Z,12.47
2019-05-21T10:02:41.515Z,12.85
2019-05-21T10:05:11.441Z,13.15
2019-05-21T10:07:41.338Z,14.07
2019-05-21T10:10:11.194Z,12.90
2019-05-21T10:12:41.064Z,10.63
2019-05-21T10:15:11.317Z,9.03
2019-05-21T10:17:41.156Z,9.30
2019-05-21T10:20:11.017Z,10.13
2019-05-21T10:22:42.006Z,8.45
2019-05-21T10:25:11.878Z,8.00
2019-05-21T10:27:41.730Z,6.92
2019-05-21T10:30:11.696Z,7.40
2019-05-21T10:32:41.550Z,8.20
2019-05-21T10:35:11.785Z,9.65
2019-05-21T10:37:53.961Z,8.00
2019-05-21T10:40:13.140Z,6.30
2019-05-21T10:42:43.011Z,8.63
2019-05-21T10:45:13.248Z,7.28
2019-05-21T10:47:43.112Z,8.28
2019-05-21T10:50:12.983Z,7.85
2019-05-21T10:52:45.689Z,8.43
2019-05-21T10:55:16.611Z,8.88
2019-05-21T10:57:47.025Z,8.65
2019-05-21T11:00:23.019Z,8.80
2019-05-21T11:02:57.231Z,9.00
2019-05-21T11:05:29.072Z,7.47
2019-05-21T11:08:22.254Z,7.97
2019-05-21T11:10:30.483Z,7.58
2019-05-21T11:13:00.328Z,8.83
2019-05-21T11:15:30.246Z,8.80
2019-05-21T11:18:10.704Z,8.05
2019-05-21T11:20:31.579Z,7.42
2019-05-21T11:23:01.537Z,8.50
2019-05-21T11:25:31.426Z,7.95
2019-05-21T11:28:01.277Z,7.95
2019-05-21T11:30:31.470Z,8.10
2019-05-21T11:33:01.401Z,7.00
2019-05-21T11:35:35.261Z,6.92
2019-05-21T11:38:04.182Z,5.90
2019-05-21T11:40:34.053Z,6.28
2019-05-21T11:43:03.901Z,6.83
2019-05-21T11:45:33.737Z,6.53
2019-05-21T11:48:04.670Z,8.15
2019-05-21T11:50:34.514Z,6.92
2019-05-21T11:53:04.354Z,5.90
2019-05-21T11:55:34.225Z,6.95
2019-05-21T11:58:04.089Z,6.42
2019-05-21T12:00:34.012Z,6.10
2019-05-21T12:03:03.956Z,7.25
2019-05-21T12:05:33.817Z,5.92
2019-05-21T12:08:03.762Z,6.03
2019-05-21T12:10:33.610Z,6.03
2019-05-21T12:13:03.465Z,7.08
2019-05-21T12:15:33.310Z,7.20
2019-05-21T12:18:03.167Z,6.65
2019-05-21T12:20:36.726Z,5.95
2019-05-21T12:23:04.671Z,5.22
2019-05-21T12:25:35.044Z,4.60
2019-05-21T12:28:05.575Z,5.90
2019-05-21T12:30:35.417Z,6.33
2019-05-21T12:33:05.334Z,6.90
2019-05-21T12:35:35.226Z,7.53
2019-05-21T12:38:05.143Z,6.87
2019-05-21T12:40:34.990Z,7.72
2019-05-21T12:43:04.886Z,8.30
2019-05-21T12:45:34.732Z,6.90
2019-05-21T12:48:04.580Z,7.60
2019-05-21T12:50:34.423Z,7.75
2019-05-21T12:53:04.725Z,7.60
2019-05-21T12:55:34.570Z,9.50
2019-05-21T12:58:04.485Z,8.38
2019-05-21T13:00:35.499Z,8.85
2019-05-21T13:03:05.343Z,10.35
2019-05-21T13:05:35.506Z,9.63
2019-05-21T13:08:05.382Z,9.95
2019-05-21T13:10:35.210Z,8.75
2019-05-21T13:13:05.454Z,12.80
2019-05-21T13:15:35.702Z,9.65
2019-05-21T13:18:05.553Z,10.80
2019-05-21T13:20:35.410Z,11.68
2019-05-21T13:23:05.334Z,9.58
2019-05-21T13:25:36.562Z,9.38
2019-05-21T13:28:06.782Z,8.93
2019-05-21T13:30:36.673Z,8.33
2019-05-21T13:33:06.525Z,11.50
2019-05-21T13:35:36.741Z,9.58
2019-05-21T13:38:06.982Z,8.75
2019-05-21T13:40:37.141Z,9.10
2019-05-21T13:43:08.355Z,9.15
2019-05-21T13:45:38.260Z,9.83
2019-05-21T13:48:08.261Z,11.00
2019-05-21T13:50:38.130Z,11.30
2019-05-21T13:53:07.985Z,11.18
2019-05-21T13:55:37.854Z,11.70
2019-05-21T13:58:07.819Z,9.48
2019-05-21T14:00:39.304Z,9.65
2019-05-21T14:03:09.691Z,11.85
2019-05-21T14:05:39.550Z,12.53
2019-05-21T14:08:09.785Z,12.03
2019-05-21T14:10:39.953Z,12.40
2019-05-21T14:13:09.831Z,10.70
2019-05-21T14:15:40.086Z,10.60
2019-05-21T14:18:09.942Z,9.03
2019-05-21T14:20:39.819Z,9.93
2019-05-21T14:23:09.722Z,11.10
2019-05-21T14:25:39.584Z,11.33
2019-05-21T14:28:09.868Z,12.33
2019-05-21T14:30:39.765Z,14.07
2019-05-21T14:33:09.693Z,12.93
2019-05-21T14:35:39.714Z,13.25
2019-05-21T14:38:09.570Z,13.35
2019-05-21T14:40:39.553Z,12.80
2019-05-21T14:43:09.466Z,14.20
2019-05-21T14:45:39.674Z,14.33
2019-05-21T14:48:09.918Z,14.83
2019-05-21T14:50:40.885Z,14.33
2019-05-21T14:53:10.806Z,15.35
2019-05-21T14:55:40.741Z,14.00
2019-05-21T14:58:10.621Z,16.17
2019-05-21T15:00:40.480Z,15.72
2019-05-21T15:03:24.235Z,14.93
2019-05-21T15:05:43.300Z,15.78
2019-05-21T15:08:13.251Z,15.00
2019-05-21T15:10:48.611Z,14.60
2019-05-21T15:13:14.598Z,13.93
2019-05-21T15:15:44.764Z,15.38
2019-05-21T15:18:20.672Z,16.37
2019-05-21T15:20:47.869Z,14.38
2019-05-21T15:23:17.742Z,15.20
2019-05-21T15:25:47.937Z,15.08
2019-05-21T15:28:18.172Z,14.60
2019-05-21T15:30:48.043Z,15.25
2019-05-21T15:33:18.289Z,14.07
2019-05-21T15:35:48.215Z,15.70
2019-05-21T15:38:18.153Z,14.55
2019-05-21T15:41:06.622Z,16.45
2019-05-21T15:43:19.932Z,16.07
2019-05-21T15:45:49.834Z,16.73
2019-05-21T15:48:19.652Z,16.60
2019-05-21T15:50:49.524Z,17.07
2019-05-21T15:53:19.388Z,16.73
2019-05-21T15:55:49.580Z,14.68
2019-05-21T15:58:19.460Z,15.32
2019-05-21T16:00:49.315Z,15.93
2019-05-21T16:03:19.173Z,14.98
2019-05-21T16:05:49.021Z,14.60
2019-05-21T16:08:19.250Z,14.85
2019-05-21T16:10:50.505Z,15.03
2019-05-21T16:13:20.435Z,13.78
2019-05-21T16:15:50.318Z,14.13
2019-05-21T16:18:20.166Z,14.95
2019-05-21T16:20:50.027Z,14.07
2019-05-21T16:23:20.210Z,13.32
2019-05-21T16:25:50.071Z,13.90
2019-05-21T16:28:19.953Z,15.93
2019-05-21T16:30:49.809Z,13.13
2019-05-21T16:33:19.680Z,13.68
2019-05-21T16:35:49.602Z,14.78
2019-05-21T16:38:19.921Z,15.65
2019-05-21T16:40:49.791Z,14.10
2019-05-21T16:43:19.641Z,15.65
2019-05-21T16:45:49.934Z,15.32
2019-05-21T16:48:20.149Z,15.32
2019-05-21T16:50:50.007Z,14.65
2019-05-21T16:53:20.170Z,15.23
2019-05-21T16:55:50.045Z,14.90
2019-05-21T16:58:19.908Z,16.45
2019-05-21T17:00:49.769Z,15.20
2019-05-21T17:03:20.054Z,15.32
2019-05-21T17:05:49.987Z,15.78
2019-05-21T17:08:19.893Z,13.85
2019-05-21T17:10:49.809Z,14.00
2019-05-21T17:13:19.676Z,14.90
2019-05-21T17:15:49.542Z,14.50
2019-05-21T17:18:19.402Z,16.32
2019-05-21T17:20:49.338Z,15.35
2019-05-21T17:23:19.515Z,14.70
2019-05-21T17:25:49.797Z,14.50
2019-05-21T17:28:20.002Z,15.53
2019-05-21T17:30:50.139Z,14.40
2019-05-21T17:33:20.435Z,13.18
2019-05-21T17:35:50.304Z,14.43
2019-05-21T17:38:20.193Z,14.13
2019-05-21T17:40:50.053Z,14.50
2019-05-21T17:43:19.951Z,14.33
2019-05-21T17:45:50.229Z,13.55
2019-05-21T17:48:20.078Z,13.40
2019-05-21T17:50:50.030Z,13.78
2019-05-21T17:53:20.183Z,12.80
2019-05-21T17:55:50.105Z,14.73
2019-05-21T17:58:20.049Z,14.38
2019-05-21T18:00:51.561Z,13.25
2019-05-21T18:03:21.698Z,13.08
2019-05-21T18:05:53.035Z,13.93
2019-05-21T18:08:23.242Z,14.33
2019-05-21T18:10:53.791Z,12.45
2019-05-21T18:13:24.838Z,14.20
2019-05-21T18:15:55.181Z,12.95
2019-05-21T18:18:25.457Z,9.75
2019-05-21T18:20:56.169Z,12.10
2019-05-21T18:23:27.121Z,14.13
2019-05-21T18:25:57.500Z,15.78
2019-05-21T18:28:27.412Z,15.70
2019-05-21T18:30:57.273Z,16.45
2019-05-21T18:33:27.140Z,16.65
2019-05-21T18:35:57.529Z,16.77
2019-05-21T18:38:27.449Z,16.17
2019-05-21T18:40:57.314Z,18.27
2019-05-21T18:43:27.581Z,17.25
2019-05-21T18:45:57.817Z,17.90
2019-05-21T18:48:28.141Z,16.62
2019-05-21T18:50:57.994Z,17.98
2019-05-21T18:53:27.895Z,17.07
2019-05-21T18:55:58.077Z,18.12
2019-05-21T18:58:28.277Z,17.15
2019-05-21T19:00:58.149Z,17.20
2019-05-21T19:03:28.118Z,17.30
2019-05-21T19:05:57.969Z,16.12
2019-05-21T19:08:28.011Z,16.52
2019-05-21T19:10:57.994Z,17.98
2019-05-21T19:13:28.209Z,18.17
2019-05-21T19:15:58.081Z,16.48
2019-05-21T19:18:28.029Z,15.72
2019-05-21T19:20:57.927Z,16.10
2019-05-21T19:23:28.166Z,13.35
2019-05-21T19:25:58.418Z,17.17
2019-05-21T19:28:28.621Z,19.12
2019-05-21T19:30:58.519Z,20.12
2019-05-21T19:33:28.369Z,16.35
2019-05-21T19:35:58.694Z,15.38
2019-05-21T19:38:29.637Z,11.88
2019-05-21T19:40:59.560Z,14.68
2019-05-21T19:43:29.473Z,17.92
2019-05-21T19:45:59.321Z,16.67
2019-05-21T19:48:30.256Z,15.30
2019-05-21T19:51:00.490Z,17.95
2019-05-21T19:53:31.698Z,16.67
2019-05-21T19:56:01.632Z,19.55
2019-05-21T19:58:32.666Z,17.40
2019-05-21T20:01:04.194Z,19.40
2019-05-21T20:03:34.188Z,18.82
2019-05-21T20:06:04.622Z,19.25
2019-05-21T20:08:34.854Z,19.07
2019-05-21T20:11:06.383Z,19.00
2019-05-21T20:13:36.633Z,20.82
2019-05-21T20:16:06.923Z,17.17
2019-05-21T20:18:36.781Z,17.45
2019-05-21T20:21:08.610Z,18.73
2019-05-21T20:23:38.643Z,15.45
2019-05-21T20:26:10.873Z,18.25
2019-05-21T20:28:41.624Z,19.12
2019-05-21T20:31:11.953Z,15.40
2019-05-21T20:33:43.499Z,18.15
2019-05-21T20:36:13.454Z,18.05
2019-05-21T20:38:43.949Z,17.23
2019-05-21T20:41:17.552Z,17.80
2019-05-21T20:43:58.188Z,17.32
2019-05-21T20:46:17.733Z,17.35
2019-05-21T20:48:49.173Z,20.23
2019-05-21T20:51:19.194Z,17.67
2019-05-21T20:53:49.145Z,16.42
2019-05-21T20:56:19.045Z,20.50
2019-05-21T20:58:49.329Z,19.35
2019-05-21T21:01:19.561Z,17.17
2019-05-21T21:03:49.985Z,17.23
2019-05-21T21:06:34.268Z,16.30
2019-05-21T21:08:52.482Z,17.37
2019-05-21T21:11:23.053Z,16.37
2019-05-21T21:13:52.997Z,16.67
2019-05-21T21:16:22.947Z,15.43
2019-05-21T21:18:52.891Z,16.30
2019-05-21T21:21:23.760Z,16.70
2019-05-21T21:23:56.421Z,17.12
2019-05-21T21:26:26.361Z,18.07
2019-05-21T21:28:56.254Z,15.78
2019-05-21T21:31:26.797Z,17.12
2019-05-21T21:33:57.443Z,17.73
2019-05-21T21:36:27.304Z,15.48
2019-05-21T21:38:58.289Z,15.50
2019-05-21T21:41:28.443Z,15.78
2019-05-21T21:43:58.750Z,16.70
2019-05-21T21:46:28.946Z,16.30
2019-05-21T21:48:58.811Z,16.52
2019-05-21T21:51:28.802Z,16.52
2019-05-21T21:53:59.692Z,17.25
2019-05-21T21:56:30.065Z,17.10
2019-05-21T21:59:00.390Z,17.67
2019-05-21T22:01:41.140Z,17.15
2019-05-21T22:04:11.111Z,18.50
2019-05-21T22:06:41.704Z,16.55
2019-05-21T22:09:13.631Z,18.50
2019-05-21T22:11:43.631Z,17.92
2019-05-21T22:14:13.517Z,19.67
2019-05-21T22:16:43.375Z,18.90
2019-05-21T22:19:13.384Z,17.75
2019-05-21T22:21:43.252Z,18.73
2019-05-21T22:24:13.951Z,15.50
2019-05-21T22:26:43.842Z,19.32
2019-05-21T22:29:14.514Z,18.82
2019-05-21T22:31:44.849Z,18.60
2019-05-21T22:34:14.720Z,18.12
2019-05-21T22:36:44.975Z,17.85
2019-05-21T22:39:18.980Z,16.95
2019-05-21T22:41:48.849Z,15.85
2019-05-21T22:44:19.144Z,16.40
2019-05-21T22:46:49.440Z,18.42
2019-05-21T22:49:19.404Z,17.02
2019-05-21T22:51:49.603Z,18.27
2019-05-21T22:54:19.472Z,18.57
2019-05-21T22:56:49.336Z,20.08
2019-05-21T22:59:19.626Z,21.37
2019-05-21T23:01:50.751Z,20.57
2019-05-21T23:04:23.420Z,21.20
2019-05-21T23:06:54.926Z,19.60
2019-05-21T23:09:24.869Z,19.35
2019-05-21T23:11:54.723Z,20.95
2019-05-21T23:14:24.953Z,22.13
2019-05-21T23:16:55.278Z,23.02
2019-05-21T23:19:27.179Z,25.17
2019-05-21T23:21:59.210Z,21.87
2019-05-21T23:24:29.901Z,24.15
2019-05-21T23:27:00.454Z,24.35
2019-05-21T23:29:31.036Z,24.47
2019-05-21T23:32:01.092Z,22.75
2019-05-21T23:34:31.746Z,25.92
2019-05-21T23:37:02.997Z,28.57
2019-05-21T23:39:34.967Z,24.30
2019-05-21T23:42:06.466Z,23.90
2019-05-21T23:44:36.410Z,23.95
2019-05-21T23:47:08.385Z,24.60
2019-05-21T23:49:38.594Z,23.05
2019-05-21T23:52:08.458Z,22.90
2019-05-21T23:54:38.739Z,24.72
2019-05-21T23:57:10.907Z,23.92
2019-05-21T23:59:40.765Z,25.52
